sensor_id;sensor_type;location;lat;lon;timestamp;pressure;altitude;pressure_sealevel;temperature;humidity
70314;BME280;57725;47.526;18.986;2023-02-19T00:01:25;99894.31;;;8.63;100.00
70314;BME280;57725;47.526;18.986;2023-02-19T00:03:57;99889.16;;;8.62;100.00
70314;BME280;57725;47.526;18.986;2023-02-19T00:06:26;99896.06;;;8.63;100.00
70314;BME280;57725;47.526;18.986;2023-02-19T00:08:52;99897.81;;;8.62;100.00
70314;BME280;57725;47.526;18.986;2023-02-19T00:11:22;99897.81;;;8.62;100.00
70314;BME280;57725;47.526;18.986;2023-02-19T00:13:50;99893.47;;;8.63;100.00
70314;BME280;57725;47.526;18.986;2023-02-19T00:16:25;99888.31;;;8.61;100.00
70314;BME280;57725;47.526;18.986;2023-02-19T00:18:52;99890.06;;;8.61;100.00
70314;BME280;57725;47.526;18.986;2023-02-19T00:21:26;99887.41;;;8.62;100.00
70314;BME280;57725;47.526;18.986;2023-02-19T00:23:54;99886.56;;;8.62;100.00
70314;BME280;57725;47.526;18.986;2023-02-19T00:26:22;99884.00;;;8.60;100.00
70314;BME280;57725;47.526;18.986;2023-02-19T00:28:52;99896.13;;;8.61;100.00
70314;BME280;57725;47.526;18.986;2023-02-19T00:33:47;99892.66;;;8.61;100.00
70314;BME280;57725;47.526;18.986;2023-02-19T00:36:16;99887.44;;;8.61;100.00
70314;BME280;57725;47.526;18.986;2023-02-19T00:38:43;99884.84;;;8.61;100.00
70314;BME280;57725;47.526;18.986;2023-02-19T00:41:09;99881.44;;;8.59;100.00
70314;BME280;57725;47.526;18.986;2023-02-19T00:46:31;99867.50;;;8.60;100.00
70314;BME280;57725;47.526;18.986;2023-02-19T00:49:03;99862.41;;;8.57;100.00
70314;BME280;57725;47.526;18.986;2023-02-19T00:51:33;99871.00;;;8.59;100.00
70314;BME280;57725;47.526;18.986;2023-02-19T00:53:59;99866.66;;;8.59;100.00
70314;BME280;57725;47.526;18.986;2023-02-19T00:56:27;99871.88;;;8.59;100.00
70314;BME280;57725;47.526;18.986;2023-02-19T00:58:53;99869.25;;;8.59;100.00
70314;BME280;57725;47.526;18.986;2023-02-19T01:01:19;99870.16;;;8.58;100.00
70314;BME280;57725;47.526;18.986;2023-02-19T01:03:45;99871.00;;;8.59;100.00
70314;BME280;57725;47.526;18.986;2023-02-19T01:06:13;99866.69;;;8.58;100.00
70314;BME280;57725;47.526;18.986;2023-02-19T01:08:39;99863.19;;;8.59;100.00
70314;BME280;57725;47.526;18.986;2023-02-19T01:11:08;99856.22;;;8.59;100.00
70314;BME280;57725;47.526;18.986;2023-02-19T01:13:34;99857.19;;;8.57;100.00
70314;BME280;57725;47.526;18.986;2023-02-19T01:18:33;99852.78;;;8.59;100.00
70314;BME280;57725;47.526;18.986;2023-02-19T01:20:59;99863.25;;;8.57;100.00
70314;BME280;57725;47.526;18.986;2023-02-19T01:23:25;99844.09;;;8.58;100.00
70314;BME280;57725;47.526;18.986;2023-02-19T01:25:52;99846.72;;;8.58;100.00
70314;BME280;57725;47.526;18.986;2023-02-19T01:28:17;99844.09;;;8.58;100.00
70314;BME280;57725;47.526;18.986;2023-02-19T01:30:46;99844.09;;;8.58;100.00
70314;BME280;57725;47.526;18.986;2023-02-19T01:33:11;99850.25;;;8.56;100.00
70314;BME280;57725;47.526;18.986;2023-02-19T01:35:40;99858.88;;;8.58;100.00
70314;BME280;57725;47.526;18.986;2023-02-19T01:38:05;99862.41;;;8.57;100.00
70314;BME280;57725;47.526;18.986;2023-02-19T01:40:34;99866.75;;;8.56;100.00
70314;BME280;57725;47.526;18.986;2023-02-19T01:43:01;99870.16;;;8.58;100.00
70314;BME280;57725;47.526;18.986;2023-02-19T01:45:31;99858.88;;;8.58;100.00
70314;BME280;57725;47.526;18.986;2023-02-19T01:50:35;99862.34;;;8.58;100.00
70314;BME280;57725;47.526;18.986;2023-02-19T01:53:05;99857.19;;;8.57;100.00
70314;BME280;57725;47.526;18.986;2023-02-19T01:55:33;99861.50;;;8.58;100.00
70314;BME280;57725;47.526;18.986;2023-02-19T01:58:02;99857.19;;;8.57;100.00
70314;BME280;57725;47.526;18.986;2023-02-19T02:00:39;99851.13;;;8.56;100.00
70314;BME280;57725;47.526;18.986;2023-02-19T02:03:07;99842.44;;;8.56;100.00
70314;BME280;57725;47.526;18.986;2023-02-19T02:08:29;99843.31;;;8.56;100.00
70314;BME280;57725;47.526;18.986;2023-02-19T02:11:16;99845.09;;;8.54;100.00
70314;BME280;57725;47.526;18.986;2023-02-19T02:13:47;99856.34;;;8.56;100.00
70314;BME280;57725;47.526;18.986;2023-02-19T02:17:09;99849.38;;;8.57;100.00
70314;BME280;57725;47.526;18.986;2023-02-19T02:22:17;99826.81;;;8.56;100.00
70314;BME280;57725;47.526;18.986;2023-02-19T02:30:20;99832.94;;;8.55;100.00
70314;BME280;57725;47.526;18.986;2023-02-19T02:35:58;99829.47;;;8.54;100.00
70314;BME280;57725;47.526;18.986;2023-02-19T02:38:28;99830.31;;;8.55;100.00
70314;BME280;57725;47.526;18.986;2023-02-19T02:40:55;99829.47;;;8.54;100.00
70314;BME280;57725;47.526;18.986;2023-02-19T02:43:22;99836.38;;;8.55;100.00
70314;BME280;57725;47.526;18.986;2023-02-19T02:45:47;99832.94;;;8.55;100.00
70314;BME280;57725;47.526;18.986;2023-02-19T02:48:30;99824.25;;;8.54;100.00
70314;BME280;57725;47.526;18.986;2023-02-19T02:53:47;99811.31;;;8.53;100.00
70314;BME280;57725;47.526;18.986;2023-02-19T02:56:34;99818.28;;;8.52;100.00
70314;BME280;57725;47.526;18.986;2023-02-19T02:59:01;99824.34;;;8.53;100.00
70314;BME280;57725;47.526;18.986;2023-02-19T03:01:58;99822.59;;;8.53;100.00
70314;BME280;57725;47.526;18.986;2023-02-19T03:05:17;99826.09;;;8.52;100.00
70314;BME280;57725;47.526;18.986;2023-02-19T03:11:24;99820.88;;;8.52;100.00
70314;BME280;57725;47.526;18.986;2023-02-19T03:14:21;99820.88;;;8.52;100.00
70314;BME280;57725;47.526;18.986;2023-02-19T03:17:16;99821.78;;;8.51;100.00
70314;BME280;57725;47.526;18.986;2023-02-19T03:20:07;99823.59;;;8.49;100.00
70314;BME280;57725;47.526;18.986;2023-02-19T03:22:35;99827.03;;;8.50;100.00
70314;BME280;57725;47.526;18.986;2023-02-19T03:25:24;99836.50;;;8.52;100.00
70314;BME280;57725;47.526;18.986;2023-02-19T03:28:11;99831.31;;;8.52;100.00
70314;BME280;57725;47.526;18.986;2023-02-19T03:30:45;99826.16;;;8.51;100.00
70314;BME280;57725;47.526;18.986;2023-02-19T03:35:52;99809.59;;;8.52;100.00
70314;BME280;57725;47.526;18.986;2023-02-19T03:38:28;99819.19;;;8.51;100.00
70314;BME280;57725;47.526;18.986;2023-02-19T03:41:06;99820.06;;;8.50;100.00
70314;BME280;57725;47.526;18.986;2023-02-19T03:43:40;99831.31;;;8.52;100.00
70314;BME280;57725;47.526;18.986;2023-02-19T03:46:14;99833.97;;;8.51;100.00
70314;BME280;57725;47.526;18.986;2023-02-19T03:48:52;99834.81;;;8.51;100.00
70314;BME280;57725;47.526;18.986;2023-02-19T03:51:36;99833.97;;;8.51;100.00
70314;BME280;57725;47.526;18.986;2023-02-19T03:54:15;99837.41;;;8.51;100.00
70314;BME280;57725;47.526;18.986;2023-02-19T03:59:32;99828.75;;;8.51;100.00
70314;BME280;57725;47.526;18.986;2023-02-19T04:02:10;99831.34;;;8.51;100.00
70314;BME280;57725;47.526;18.986;2023-02-19T04:04:49;99823.53;;;8.51;100.00
70314;BME280;57725;47.526;18.986;2023-02-19T04:07:15;99822.69;;;8.50;100.00
70314;BME280;57725;47.526;18.986;2023-02-19T04:09:46;99831.34;;;8.51;100.00
70314;BME280;57725;47.526;18.986;2023-02-19T04:12:15;99831.44;;;8.48;100.00
70314;BME280;57725;47.526;18.986;2023-02-19T04:14:48;99828.81;;;8.49;100.00
70314;BME280;57725;47.526;18.986;2023-02-19T04:17:21;99824.44;;;8.50;100.00
70314;BME280;57725;47.526;18.986;2023-02-19T04:19:54;99832.31;;;8.48;100.00
70314;BME280;57725;47.526;18.986;2023-02-19T04:22:21;99838.31;;;8.50;100.00
70314;BME280;57725;47.526;18.986;2023-02-19T04:24:52;99831.41;;;8.49;100.00
70314;BME280;57725;47.526;18.986;2023-02-19T04:27:18;99835.72;;;8.50;100.00
70314;BME280;57725;47.526;18.986;2023-02-19T04:29:46;99826.19;;;8.49;100.00
70314;BME280;57725;47.526;18.986;2023-02-19T04:32:12;99835.72;;;8.50;100.00
70314;BME280;57725;47.526;18.986;2023-02-19T04:34:38;99839.22;;;8.49;100.00
70314;BME280;57725;47.526;18.986;2023-02-19T04:37:04;99844.44;;;8.49;100.00
70314;BME280;57725;47.526;18.986;2023-02-19T04:39:32;99847.03;;;8.49;100.00
70314;BME280;57725;47.526;18.986;2023-02-19T04:41:58;99837.47;;;8.50;100.00
70314;BME280;57725;47.526;18.986;2023-02-19T04:44:23;99840.06;;;8.50;100.00
70314;BME280;57725;47.526;18.986;2023-02-19T04:46:49;99842.72;;;8.48;100.00
70314;BME280;57725;47.526;18.986;2023-02-19T04:49:14;99849.66;;;8.49;100.00
70314;BME280;57725;47.526;18.986;2023-02-19T04:51:44;99847.94;;;8.48;100.00
70314;BME280;57725;47.526;18.986;2023-02-19T04:54:10;99847.94;;;8.48;100.00
70314;BME280;57725;47.526;18.986;2023-02-19T04:56:43;99847.03;;;8.49;100.00
70314;BME280;57725;47.526;18.986;2023-02-19T04:59:11;99847.94;;;8.48;100.00
70314;BME280;57725;47.526;18.986;2023-02-19T05:01:37;99845.34;;;8.48;100.00
70314;BME280;57725;47.526;18.986;2023-02-19T05:04:05;99826.25;;;8.48;100.00
70314;BME280;57725;47.526;18.986;2023-02-19T05:06:31;99830.56;;;8.49;100.00
70314;BME280;57725;47.526;18.986;2023-02-19T05:08:56;99828.84;;;8.48;100.00
70314;BME280;57725;47.526;18.986;2023-02-19T05:11:24;99826.28;;;8.46;100.00
70314;BME280;57725;47.526;18.986;2023-02-19T05:13:54;99829.69;;;8.48;100.00
70314;BME280;57725;47.526;18.986;2023-02-19T05:16:21;99834.06;;;8.48;100.00
70314;BME280;57725;47.526;18.986;2023-02-19T05:18:49;99828.84;;;8.48;100.00
70314;BME280;57725;47.526;18.986;2023-02-19T05:21:15;99834.06;;;8.48;100.00
70314;BME280;57725;47.526;18.986;2023-02-19T05:23:43;99842.78;;;8.47;100.00
70314;BME280;57725;47.526;18.986;2023-02-19T05:26:14;99847.09;;;8.48;100.00
70314;BME280;57725;47.526;18.986;2023-02-19T05:28:42;99842.78;;;8.47;100.00
70314;BME280;57725;47.526;18.986;2023-02-19T05:31:10;99845.34;;;8.48;100.00
70314;BME280;57725;47.526;18.986;2023-02-19T05:33:35;99843.69;;;8.46;100.00
70314;BME280;57725;47.526;18.986;2023-02-19T05:36:07;99845.38;;;8.47;100.00
70314;BME280;57725;47.526;18.986;2023-02-19T05:38:34;99845.38;;;8.47;100.00
70314;BME280;57725;47.526;18.986;2023-02-19T05:41:11;99835.81;;;8.47;100.00
70314;BME280;57725;47.526;18.986;2023-02-19T05:43:38;99821.06;;;8.46;100.00
70314;BME280;57725;47.526;18.986;2023-02-19T05:46:07;99829.75;;;8.47;100.00
70314;BME280;57725;47.526;18.986;2023-02-19T05:48:33;99839.31;;;8.46;100.00
70314;BME280;57725;47.526;18.986;2023-02-19T05:51:06;99838.50;;;8.44;100.00
70314;BME280;57725;47.526;18.986;2023-02-19T05:53:33;99846.28;;;8.46;100.00
70314;BME280;57725;47.526;18.986;2023-02-19T05:55:58;99840.22;;;8.45;100.00
70314;BME280;57725;47.526;18.986;2023-02-19T05:58:26;99843.69;;;8.46;100.00
70314;BME280;57725;47.526;18.986;2023-02-19T06:00:59;99850.63;;;8.45;100.00
70314;BME280;57725;47.526;18.986;2023-02-19T06:03:27;99848.03;;;8.45;100.00
70314;BME280;57725;47.526;18.986;2023-02-19T06:05:54;99853.25;;;8.45;100.00
70314;BME280;57725;47.526;18.986;2023-02-19T06:08:19;99853.25;;;8.45;100.00
70314;BME280;57725;47.526;18.986;2023-02-19T06:10:53;99848.09;;;8.44;100.00
70314;BME280;57725;47.526;18.986;2023-02-19T06:13:18;99845.47;;;8.44;100.00
70314;BME280;57725;47.526;18.986;2023-02-19T06:15:44;99848.94;;;8.44;100.00
70314;BME280;57725;47.526;18.986;2023-02-19T06:18:09;99834.16;;;8.45;100.00
70314;BME280;57725;47.526;18.986;2023-02-19T06:20:34;99835.91;;;8.44;100.00
70314;BME280;57725;47.526;18.986;2023-02-19T06:23:00;99836.75;;;8.45;100.00
70314;BME280;57725;47.526;18.986;2023-02-19T06:25:26;99830.69;;;8.44;100.00
70314;BME280;57725;47.526;18.986;2023-02-19T06:27:56;99827.25;;;8.44;100.00
70314;BME280;57725;47.526;18.986;2023-02-19T06:30:24;99831.56;;;8.45;100.00
70314;BME280;57725;47.526;18.986;2023-02-19T06:32:52;99823.88;;;8.42;100.00
70314;BME280;57725;47.526;18.986;2023-02-19T06:35:20;99816.91;;;8.42;100.00
70314;BME280;57725;47.526;18.986;2023-02-19T06:37:49;99821.13;;;8.45;100.00
70314;BME280;57725;47.526;18.986;2023-02-19T06:40:17;99806.53;;;8.41;100.00
70314;BME280;57725;47.526;18.986;2023-02-19T06:42:45;99812.47;;;8.44;100.00
70314;BME280;57725;47.526;18.986;2023-02-19T06:45:10;99808.22;;;8.42;100.00
70314;BME280;57725;47.526;18.986;2023-02-19T06:47:38;99813.38;;;8.43;100.00
70314;BME280;57725;47.526;18.986;2023-02-19T06:50:04;99821.19;;;8.43;100.00
70314;BME280;57725;47.526;18.986;2023-02-19T06:52:29;99816.06;;;8.42;100.00
70314;BME280;57725;47.526;18.986;2023-02-19T06:54:54;99809.09;;;8.42;100.00
70314;BME280;57725;47.526;18.986;2023-02-19T06:57:20;99815.97;;;8.43;100.00
70314;BME280;57725;47.526;18.986;2023-02-19T06:59:45;99808.16;;;8.43;100.00
70314;BME280;57725;47.526;18.986;2023-02-19T07:02:11;99813.38;;;8.43;100.00
70314;BME280;57725;47.526;18.986;2023-02-19T07:04:39;99811.69;;;8.42;100.00
70314;BME280;57725;47.526;18.986;2023-02-19T07:07:10;99821.19;;;8.43;100.00
70314;BME280;57725;47.526;18.986;2023-02-19T07:09:37;99818.56;;;8.43;100.00
70314;BME280;57725;47.526;18.986;2023-02-19T07:12:03;99815.19;;;8.41;100.00
70314;BME280;57725;47.526;18.986;2023-02-19T07:14:29;99814.28;;;8.42;100.00
70314;BME280;57725;47.526;18.986;2023-02-19T07:16:56;99817.72;;;8.43;100.00
70314;BME280;57725;47.526;18.986;2023-02-19T07:19:24;99817.72;;;8.43;100.00
70314;BME280;57725;47.526;18.986;2023-02-19T07:21:49;99815.97;;;8.43;100.00
70314;BME280;57725;47.526;18.986;2023-02-19T07:24:15;99799.47;;;8.43;100.00
70314;BME280;57725;47.526;18.986;2023-02-19T07:26:45;99807.38;;;8.41;100.00
70314;BME280;57725;47.526;18.986;2023-02-19T07:29:13;99804.69;;;8.43;100.00
70314;BME280;57725;47.526;18.986;2023-02-19T07:31:39;99804.78;;;8.41;100.00
70314;BME280;57725;47.526;18.986;2023-02-19T07:34:06;99794.28;;;8.43;100.00
70314;BME280;57725;47.526;18.986;2023-02-19T07:36:32;99796.88;;;8.43;100.00
70314;BME280;57725;47.526;18.986;2023-02-19T07:38:59;99789.06;;;8.43;100.00
70314;BME280;57725;47.526;18.986;2023-02-19T07:41:26;99794.28;;;8.43;100.00
70314;BME280;57725;47.526;18.986;2023-02-19T07:43:52;99786.53;;;8.41;100.00
70314;BME280;57725;47.526;18.986;2023-02-19T07:46:19;99795.22;;;8.42;100.00
70314;BME280;57725;47.526;18.986;2023-02-19T07:48:45;99796.97;;;8.41;100.00
70314;BME280;57725;47.526;18.986;2023-02-19T07:51:13;99807.31;;;8.43;100.00
70314;BME280;57725;47.526;18.986;2023-02-19T07:53:41;99802.22;;;8.40;100.00
70314;BME280;57725;47.526;18.986;2023-02-19T07:56:07;99809.13;;;8.41;100.00
70314;BME280;57725;47.526;18.986;2023-02-19T07:58:33;99809.91;;;8.43;100.00
70314;BME280;57725;47.526;18.986;2023-02-19T08:03:44;99820.31;;;8.43;100.00
70314;BME280;57725;47.526;18.986;2023-02-19T08:06:12;99827.25;;;8.44;100.00
70314;BME280;57725;47.526;18.986;2023-02-19T08:08:38;99825.50;;;8.44;100.00
70314;BME280;57725;47.526;18.986;2023-02-19T08:11:04;99836.81;;;8.43;100.00
70314;BME280;57725;47.526;18.986;2023-02-19T08:13:49;99842.88;;;8.44;100.00
70314;BME280;57725;47.526;18.986;2023-02-19T08:16:18;99851.53;;;8.44;100.00
70314;BME280;57725;47.526;18.986;2023-02-19T08:18:47;99849.84;;;8.43;100.00
70314;BME280;57725;47.526;18.986;2023-02-19T08:21:12;99849.91;;;8.42;100.00
70314;BME280;57725;47.526;18.986;2023-02-19T08:23:38;99860.25;;;8.43;100.00
70314;BME280;57725;47.526;18.986;2023-02-19T08:26:04;99858.50;;;8.44;100.00
70314;BME280;57725;47.526;18.986;2023-02-19T08:28:29;99863.78;;;8.42;100.00
70314;BME280;57725;47.526;18.986;2023-02-19T08:31:00;99880.19;;;8.44;100.00
70314;BME280;57725;47.526;18.986;2023-02-19T08:33:26;99863.72;;;8.44;100.00
70314;BME280;57725;47.526;18.986;2023-02-19T08:35:54;99848.94;;;8.44;100.00
70314;BME280;57725;47.526;18.986;2023-02-19T08:38:20;99841.16;;;8.43;100.00
70314;BME280;57725;47.526;18.986;2023-02-19T08:40:46;99844.63;;;8.43;100.00
70314;BME280;57725;47.526;18.986;2023-02-19T08:43:13;99842.88;;;8.44;100.00
70314;BME280;57725;47.526;18.986;2023-02-19T08:45:41;99843.72;;;8.44;100.00
70314;BME280;57725;47.526;18.986;2023-02-19T08:48:10;99842.94;;;8.42;100.00
70314;BME280;57725;47.526;18.986;2023-02-19T08:50:36;99836.81;;;8.43;100.00
70314;BME280;57725;47.526;18.986;2023-02-19T08:53:04;99843.72;;;8.44;100.00
70314;BME280;57725;47.526;18.986;2023-02-19T08:55:32;99841.16;;;8.43;100.00
70314;BME280;57725;47.526;18.986;2023-02-19T08:57:58;99836.94;;;8.40;100.00
70314;BME280;57725;47.526;18.986;2023-02-19T09:00:25;99860.22;;;8.45;100.00
70314;BME280;57725;47.526;18.986;2023-02-19T09:02:51;99846.38;;;8.43;100.00
70314;BME280;57725;47.526;18.986;2023-02-19T09:05:17;99842.03;;;8.43;100.00
70314;BME280;57725;47.526;18.986;2023-02-19T09:07:42;99857.59;;;8.45;100.00
70314;BME280;57725;47.526;18.986;2023-02-19T09:10:10;99865.41;;;8.45;100.00
70314;BME280;57725;47.526;18.986;2023-02-19T09:12:36;99857.59;;;8.45;100.00
70314;BME280;57725;47.526;18.986;2023-02-19T09:15:05;99839.38;;;8.45;100.00
70314;BME280;57725;47.526;18.986;2023-02-19T09:17:32;99844.56;;;8.45;100.00
70314;BME280;57725;47.526;18.986;2023-02-19T09:19:58;99839.38;;;8.45;100.00
70314;BME280;57725;47.526;18.986;2023-02-19T09:22:23;99831.56;;;8.45;100.00
70314;BME280;57725;47.526;18.986;2023-02-19T09:24:51;99839.38;;;8.45;100.00
70314;BME280;57725;47.526;18.986;2023-02-19T09:27:19;99840.16;;;8.47;100.00
70314;BME280;57725;47.526;18.986;2023-02-19T09:29:45;99843.69;;;8.46;100.00
70314;BME280;57725;47.526;18.986;2023-02-19T09:32:15;99832.41;;;8.45;100.00
70314;BME280;57725;47.526;18.986;2023-02-19T09:34:40;99850.59;;;8.47;100.00
70314;BME280;57725;47.526;18.986;2023-02-19T09:37:06;99843.69;;;8.46;100.00
70314;BME280;57725;47.526;18.986;2023-02-19T09:39:33;99840.16;;;8.47;100.00
70314;BME280;57725;47.526;18.986;2023-02-19T09:44:38;99840.16;;;8.47;100.00
70314;BME280;57725;47.526;18.986;2023-02-19T09:47:18;99827.13;;;8.47;100.00
70314;BME280;57725;47.526;18.986;2023-02-19T09:49:47;99822.78;;;8.47;100.00
70314;BME280;57725;47.526;18.986;2023-02-19T09:55:01;99824.53;;;8.47;100.00
70314;BME280;57725;47.526;18.986;2023-02-19T09:57:31;99825.44;;;8.46;100.00
70314;BME280;57725;47.526;18.986;2023-02-19T10:00:12;99812.41;;;8.46;100.00
70314;BME280;57725;47.526;18.986;2023-02-19T10:02:50;99805.41;;;8.48;100.00
70314;BME280;57725;47.526;18.986;2023-02-19T10:05:18;99796.72;;;8.47;100.00
70314;BME280;57725;47.526;18.986;2023-02-19T10:07:50;99778.78;;;8.40;100.00
70314;BME280;57725;47.526;18.986;2023-02-19T10:12:47;99781.91;;;8.49;100.00
70314;BME280;57725;47.526;18.986;2023-02-19T10:15:24;99777.50;;;8.51;100.00
70314;BME280;57725;47.526;18.986;2023-02-19T10:17:53;99778.41;;;8.50;100.00
70314;BME280;57725;47.526;18.986;2023-02-19T10:20:21;99781.00;;;8.50;100.00
70314;BME280;57725;47.526;18.986;2023-02-19T10:23:01;99779.28;;;8.49;100.00
70314;BME280;57725;47.526;18.986;2023-02-19T10:25:31;99779.19;;;8.52;100.00
70314;BME280;57725;47.526;18.986;2023-02-19T10:28:00;99771.38;;;8.52;100.00
70314;BME280;57725;47.526;18.986;2023-02-19T10:30:31;99769.53;;;8.54;100.00
70314;BME280;57725;47.526;18.986;2023-02-19T10:35:49;99759.91;;;8.56;100.00
70314;BME280;57725;47.526;18.986;2023-02-19T10:38:16;99754.75;;;8.55;100.00
70314;BME280;57725;47.526;18.986;2023-02-19T10:40:45;99753.00;;;8.55;100.00
70314;BME280;57725;47.526;18.986;2023-02-19T10:43:25;99741.69;;;8.56;100.00
70314;BME280;57725;47.526;18.986;2023-02-19T10:45:56;99739.06;;;8.56;100.00
70314;BME280;57725;47.526;18.986;2023-02-19T10:50:51;99741.69;;;8.56;100.00
70314;BME280;57725;47.526;18.986;2023-02-19T10:53:34;99741.63;;;8.58;100.00
70314;BME280;57725;47.526;18.986;2023-02-19T10:58:32;99736.38;;;8.59;100.00
70314;BME280;57725;47.526;18.986;2023-02-19T11:01:19;99729.44;;;8.58;100.00
70314;BME280;57725;47.526;18.986;2023-02-19T11:04:15;99728.53;;;8.59;100.00
70314;BME280;57725;47.526;18.986;2023-02-19T11:06:44;99716.38;;;8.60;100.00
70314;BME280;57725;47.526;18.986;2023-02-19T11:09:31;99712.84;;;8.61;100.00
70314;BME280;57725;47.526;18.986;2023-02-19T11:12:00;99713.72;;;8.61;100.00
70314;BME280;57725;47.526;18.986;2023-02-19T11:14:29;99713.75;;;8.60;100.00
70314;BME280;57725;47.526;18.986;2023-02-19T11:17:01;99712.81;;;8.62;100.00
70314;BME280;57725;47.526;18.986;2023-02-19T11:19:43;99717.97;;;8.64;100.00
70314;BME280;57725;47.526;18.986;2023-02-19T11:22:26;99711.16;;;8.60;100.00
70314;BME280;57725;47.526;18.986;2023-02-19T11:24:56;99715.34;;;8.64;100.00
70314;BME280;57725;47.526;18.986;2023-02-19T11:27:24;99698.91;;;8.62;100.00
70314;BME280;57725;47.526;18.986;2023-02-19T11:29:51;99691.06;;;8.63;100.00
70314;BME280;57725;47.526;18.986;2023-02-19T11:32:28;99684.63;;;8.72;100.00
70314;BME280;57725;47.526;18.986;2023-02-19T11:35:18;99678.41;;;8.98;100.00
70314;BME280;57725;47.526;18.986;2023-02-19T11:40:36;99679.56;;;8.91;100.00
70314;BME280;57725;47.526;18.986;2023-02-19T11:43:25;99646.72;;;8.87;100.00
70314;BME280;57725;47.526;18.986;2023-02-19T11:48:35;99644.47;;;9.62;99.62
70314;BME280;57725;47.526;18.986;2023-02-19T11:53:46;99635.78;;;10.02;95.34
70314;BME280;57725;47.526;18.986;2023-02-19T11:56:22;99638.88;;;10.10;96.26
70314;BME280;57725;47.526;18.986;2023-02-19T12:21:05;99600.59;;;10.67;92.33
70314;BME280;57725;47.526;18.986;2023-02-19T12:26:11;99599.38;;;10.55;91.75
70314;BME280;57725;47.526;18.986;2023-02-19T12:45:30;99602.00;;;10.55;90.17
70314;BME280;57725;47.526;18.986;2023-02-19T12:48:25;99626.50;;;10.52;92.17
70314;BME280;57725;47.526;18.986;2023-02-19T12:51:16;99641.34;;;10.33;98.80
70314;BME280;57725;47.526;18.986;2023-02-19T12:53:46;99653.78;;;10.08;100.00
70314;BME280;57725;47.526;18.986;2023-02-19T12:57:01;99690.47;;;9.85;100.00
70314;BME280;57725;47.526;18.986;2023-02-19T12:59:35;99651.84;;;9.52;100.00
70314;BME280;57725;47.526;18.986;2023-02-19T13:05:19;99622.41;;;9.28;100.00
70314;BME280;57725;47.526;18.986;2023-02-19T13:08:01;99626.94;;;9.23;100.00
70314;BME280;57725;47.526;18.986;2023-02-19T13:13:00;99603.63;;;9.20;100.00
70314;BME280;57725;47.526;18.986;2023-02-19T13:15:42;99604.47;;;9.21;100.00
70314;BME280;57725;47.526;18.986;2023-02-19T13:18:19;99614.00;;;9.22;100.00
70314;BME280;57725;47.526;18.986;2023-02-19T13:20:47;99603.47;;;9.23;100.00
70314;BME280;57725;47.526;18.986;2023-02-19T13:23:36;99596.19;;;9.31;100.00
70314;BME280;57725;47.526;18.986;2023-02-19T13:32:16;99587.84;;;9.43;100.00
70314;BME280;57725;47.526;18.986;2023-02-19T13:37:38;99576.41;;;9.46;100.00
70314;BME280;57725;47.526;18.986;2023-02-19T13:42:51;99614.47;;;9.52;100.00
70314;BME280;57725;47.526;18.986;2023-02-19T13:45:25;99632.06;;;9.47;100.00
70314;BME280;57725;47.526;18.986;2023-02-19T13:52:52;99646.72;;;9.29;100.00
70314;BME280;57725;47.526;18.986;2023-02-19T14:00:59;99651.78;;;9.12;100.00
70314;BME280;57725;47.526;18.986;2023-02-19T14:06:00;99669.50;;;9.03;100.00
70314;BME280;57725;47.526;18.986;2023-02-19T14:16:57;99683.00;;;9.13;100.00
70314;BME280;57725;47.526;18.986;2023-02-19T14:25:33;99690.81;;;14.47;79.71
70314;BME280;57725;47.526;18.986;2023-02-19T14:30:52;99695.69;;;16.02;69.08
70314;BME280;57725;47.526;18.986;2023-02-19T14:33:24;99702.53;;;16.30;66.35
70314;BME280;57725;47.526;18.986;2023-02-19T14:38:58;99712.88;;;16.58;64.91
70314;BME280;57725;47.526;18.986;2023-02-19T14:41:32;99709.88;;;16.88;62.63
70314;BME280;57725;47.526;18.986;2023-02-19T14:44:00;99712.69;;;17.11;61.55
70314;BME280;57725;47.526;18.986;2023-02-19T14:46:30;99710.38;;;17.06;62.31
70314;BME280;57725;47.526;18.986;2023-02-19T14:49:30;99705.22;;;17.05;62.64
70314;BME280;57725;47.526;18.986;2023-02-19T14:52:06;99698.41;;;17.13;61.96
70314;BME280;57725;47.526;18.986;2023-02-19T14:54:47;99701.00;;;17.26;61.10
70314;BME280;57725;47.526;18.986;2023-02-19T14:57:18;99712.91;;;17.55;61.03
70314;BME280;57725;47.526;18.986;2023-02-19T14:59:51;99695.63;;;18.99;58.23
70314;BME280;57725;47.526;18.986;2023-02-19T15:02:20;99693.06;;;20.46;51.93
70314;BME280;57725;47.526;18.986;2023-02-19T15:04:46;99694.63;;;21.29;49.84
70314;BME280;57725;47.526;18.986;2023-02-19T15:07:29;99708.34;;;21.82;48.34
70314;BME280;57725;47.526;18.986;2023-02-19T15:10:00;99712.56;;;22.14;47.62
70314;BME280;57725;47.526;18.986;2023-02-19T15:12:34;99702.56;;;22.35;47.29
70314;BME280;57725;47.526;18.986;2023-02-19T15:15:04;99712.41;;;22.62;46.70
70314;BME280;57725;47.526;18.986;2023-02-19T15:17:34;99714.06;;;22.72;46.58
70314;BME280;57725;47.526;18.986;2023-02-19T15:20:09;99720.16;;;22.92;46.02
70314;BME280;57725;47.526;18.986;2023-02-19T15:22:38;99723.78;;;23.01;46.12
70314;BME280;57725;47.526;18.986;2023-02-19T15:25:06;99716.81;;;23.18;45.87
70314;BME280;57725;47.526;18.986;2023-02-19T15:27:31;99721.78;;;23.30;45.45
70314;BME280;57725;47.526;18.986;2023-02-19T15:29:58;99702.34;;;23.38;45.57
70314;BME280;57725;47.526;18.986;2023-02-19T15:32:26;99707.47;;;23.49;45.25
70314;BME280;57725;47.526;18.986;2023-02-19T15:34:57;99725.94;;;23.60;45.14
70314;BME280;57725;47.526;18.986;2023-02-19T15:37:23;99728.13;;;23.47;45.48
70314;BME280;57725;47.526;18.986;2023-02-19T15:39:51;99739.28;;;22.31;47.83
70314;BME280;57725;47.526;18.986;2023-02-19T15:42:24;99733.03;;;22.60;47.49
70314;BME280;57725;47.526;18.986;2023-02-19T15:45:06;99735.78;;;23.15;46.43